^^
Saratoga-Weather Station Historical Data
Daily Summary for September 22, 2020 Units:  Both    English   Metric
Daily Weekly Monthly Yearly Custom
  High: Low: Average:
Temperature: 76.5 °F /  24.7 °C 65.5 °F /  18.6 °C 71.1 °F /  21.7 °C
Dew Point: 67.5 °F /  19.7 °C 53.1 °F /  11.7 °C 59 °F /  15 °C
Humidity: 89% 45% 67%
Wind Speed: 15mph /  24.1km/h - 3.4mph /  5.4km/h
Wind Gust: 18mph /  29km/h - -
Wind- - West
Pressure: 30 in /  1016.9 hPa 29.9 in /  1012.5 hPa -
Precipitation: 0 in /  0.0 mm    
Historical Graphs
 
 
Tabular Data for September 22, 2020
Time Temperature Dew Point Pressure Wind Wind Speed Wind Gust Humidity Rainfall Rate (Hourly) solar
00:00 72.5 °F /  22.5 °C 67.5 °F /  19.7 °C 29.9in /  1012.5hPa NW 0.9mph /  1.4km/h 5mph /  8km/h 84% 0in /  0.0mm 0 W/m2
00:05 72.3 °F /  22.4 °C 67.3 °F /  19.6 °C 29.9in /  1012.5hPa NNW 0.9mph /  1.4km/h 4mph /  6.4km/h 84% 0in /  0.0mm 0 W/m2
00:10 72.3 °F /  22.4 °C 67.3 °F /  19.6 °C 29.9in /  1012.5hPa NW 2.9mph /  4.7km/h 6mph /  9.7km/h 84% 0in /  0.0mm 0 W/m2
00:15 72.3 °F /  22.4 °C 67.3 °F /  19.6 °C 29.9in /  1012.5hPa WSW 0.9mph /  1.4km/h 4mph /  6.4km/h 84% 0in /  0.0mm 0 W/m2
00:21 72.1 °F /  22.3 °C 67.1 °F /  19.5 °C 29.9in /  1012.5hPa East 2mph /  3.2km/h 6mph /  9.7km/h 84% 0in /  0.0mm 0 W/m2
00:26 72.1 °F /  22.3 °C 67.1 °F /  19.5 °C 29.9in /  1012.5hPa Calm   2mph /  3.2km/h 84% 0in /  0.0mm 0 W/m2
00:31 72.1 °F /  22.3 °C 67.1 °F /  19.5 °C 29.9in /  1012.5hPa Calm   2mph /  3.2km/h 84% 0in /  0.0mm 0 W/m2
00:36 72 °F /  22.2 °C 67.3 °F /  19.6 °C 29.9in /  1012.9hPa WNW 0.9mph /  1.4km/h 1mph /  1.6km/h 85% 0in /  0.0mm 0 W/m2
00:41 72 °F /  22.2 °C 67.3 °F /  19.6 °C 29.9in /  1012.9hPa Calm   2mph /  3.2km/h 85% 0in /  0.0mm 0 W/m2
00:46 72 °F /  22.2 °C 67.3 °F /  19.6 °C 29.9in /  1012.9hPa Calm   1mph /  1.6km/h 85% 0in /  0.0mm 0 W/m2
00:51 71.8 °F /  22.1 °C 67.1 °F /  19.5 °C 29.9in /  1012.9hPa NW 0.9mph /  1.4km/h 2mph /  3.2km/h 85% 0in /  0.0mm 0 W/m2
00:56 71.8 °F /  22.1 °C 67.1 °F /  19.5 °C 29.9in /  1012.9hPa SSE 0.9mph /  1.4km/h 2mph /  3.2km/h 85% 0in /  0.0mm 0 W/m2
01:01 71.8 °F /  22.1 °C 67.1 °F /  19.5 °C 29.9in /  1012.9hPa SSW 0.9mph /  1.4km/h 4mph /  6.4km/h 85% 0in /  0.0mm 0 W/m2
01:06 71.6 °F /  22 °C 67.1 °F /  19.5 °C 29.9in /  1013.2hPa Calm   1mph /  1.6km/h 86% 0in /  0.0mm 0 W/m2
01:11 71.4 °F /  21.9 °C 67.1 °F /  19.5 °C 29.9in /  1012.9hPa East 0.9mph /  1.4km/h 3mph /  4.8km/h 86% 0in /  0.0mm 0 W/m2
01:16 71.4 °F /  21.9 °C 67.1 °F /  19.5 °C 29.9in /  1012.9hPa SSE 2.9mph /  4.7km/h 3mph /  4.8km/h 86% 0in /  0.0mm 0 W/m2
01:21 71.2 °F /  21.8 °C 66.9 °F /  19.4 °C 29.9in /  1013.2hPa East 2mph /  3.2km/h 4mph /  6.4km/h 86% 0in /  0.0mm 0 W/m2
01:26 71.2 °F /  21.8 °C 67.1 °F /  19.5 °C 29.9in /  1013.2hPa SE 0.9mph /  1.4km/h 3mph /  4.8km/h 87% 0in /  0.0mm 0 W/m2
01:31 71.1 °F /  21.7 °C 66.9 °F /  19.4 °C 29.9in /  1013.2hPa Calm   3mph /  4.8km/h 87% 0in /  0.0mm 0 W/m2
01:36 71.1 °F /  21.7 °C 66.9 °F /  19.4 °C 29.9in /  1013.2hPa SSW 0.9mph /  1.4km/h 3mph /  4.8km/h 87% 0in /  0.0mm 0 W/m2
01:41 70.9 °F /  21.6 °C 66.7 °F /  19.3 °C 29.9in /  1013.2hPa Calm   4mph /  6.4km/h 87% 0in /  0.0mm 0 W/m2
01:46 70.9 °F /  21.6 °C 66.7 °F /  19.3 °C 29.9in /  1013.2hPa Calm   1mph /  1.6km/h 87% 0in /  0.0mm 0 W/m2
01:51 70.9 °F /  21.6 °C 66.7 °F /  19.3 °C 29.9in /  1013.2hPa North 0.9mph /  1.4km/h 4mph /  6.4km/h 87% 0in /  0.0mm 0 W/m2
01:56 70.7 °F /  21.5 °C 66.6 °F /  19.2 °C 29.9in /  1013.2hPa SSE 2mph /  3.2km/h 3mph /  4.8km/h 87% 0in /  0.0mm 0 W/m2
02:01 70.5 °F /  21.4 °C 66.4 °F /  19.1 °C 29.9in /  1012.9hPa Calm   3mph /  4.8km/h 87% 0in /  0.0mm 0 W/m2
02:06 70.5 °F /  21.4 °C 66.4 °F /  19.1 °C 29.9in /  1013.2hPa Calm   1mph /  1.6km/h 87% 0in /  0.0mm 0 W/m2
02:11 70.3 °F /  21.3 °C 66.2 °F /  19 °C 29.9in /  1013.2hPa SW 0.9mph /  1.4km/h 3mph /  4.8km/h 87% 0in /  0.0mm 0 W/m2
02:16 70.3 °F /  21.3 °C 66.6 °F /  19.2 °C 29.9in /  1013.5hPa East 0.9mph /  1.4km/h 4mph /  6.4km/h 88% 0in /  0.0mm 0 W/m2
02:21 70.3 °F /  21.3 °C 66.6 °F /  19.2 °C 29.9in /  1013.5hPa Calm   2mph /  3.2km/h 88% 0in /  0.0mm 0 W/m2
02:26 70.2 °F /  21.2 °C 66.4 °F /  19.1 °C 29.9in /  1013.5hPa Calm   2mph /  3.2km/h 88% 0in /  0.0mm 0 W/m2
02:31 70.2 °F /  21.2 °C 66.4 °F /  19.1 °C 29.9in /  1013.5hPa Calm   2mph /  3.2km/h 88% 0in /  0.0mm 0 W/m2
02:36 70.2 °F /  21.2 °C 66.4 °F /  19.1 °C 29.9in /  1013.5hPa East 4mph /  6.4km/h 6mph /  9.7km/h 88% 0in /  0.0mm 0 W/m2
02:41 70.2 °F /  21.2 °C 66.4 °F /  19.1 °C 29.9in /  1013.5hPa WNW 2.9mph /  4.7km/h 3mph /  4.8km/h 88% 0in /  0.0mm 0 W/m2
02:46 70 °F /  21.1 °C 66.2 °F /  19 °C 29.9in /  1013.5hPa NNW 2.9mph /  4.7km/h 6mph /  9.7km/h 88% 0in /  0.0mm 0 W/m2
02:51 70 °F /  21.1 °C 66.2 °F /  19 °C 29.9in /  1013.5hPa WSW 2.9mph /  4.7km/h 3mph /  4.8km/h 88% 0in /  0.0mm 0 W/m2
02:56 69.8 °F /  21 °C 66 °F /  18.9 °C 29.9in /  1013.9hPa NE 2.9mph /  4.7km/h 4mph /  6.4km/h 88% 0in /  0.0mm 0 W/m2
03:01 69.6 °F /  20.9 °C 65.8 °F /  18.8 °C 30in /  1014.2hPa NNE 2mph /  3.2km/h 4mph /  6.4km/h 88% 0in /  0.0mm 0 W/m2
03:06 69.6 °F /  20.9 °C 65.8 °F /  18.8 °C 29.9in /  1013.9hPa WNW 0.9mph /  1.4km/h 3mph /  4.8km/h 88% 0in /  0.0mm 0 W/m2
03:11 69.4 °F /  20.8 °C 65.7 °F /  18.7 °C 30in /  1014.2hPa NNE 2.9mph /  4.7km/h 3mph /  4.8km/h 88% 0in /  0.0mm 0 W/m2
03:17 69.4 °F /  20.8 °C 65.7 °F /  18.7 °C 30in /  1014.2hPa NW 2.9mph /  4.7km/h 4mph /  6.4km/h 88% 0in /  0.0mm 0 W/m2
03:22 69.4 °F /  20.8 °C 65.7 °F /  18.7 °C 29.9in /  1013.9hPa North 0.9mph /  1.4km/h 1mph /  1.6km/h 88% 0in /  0.0mm 0 W/m2
03:27 69.4 °F /  20.8 °C 65.5 °F /  18.6 °C 29.9in /  1013.9hPa Calm   4mph /  6.4km/h 87% 0in /  0.0mm 0 W/m2
03:32 69.3 °F /  20.7 °C 65.3 °F /  18.5 °C 29.9in /  1013.9hPa WNW 2.9mph /  4.7km/h 4mph /  6.4km/h 87% 0in /  0.0mm 0 W/m2
03:37 69.3 °F /  20.7 °C 65.3 °F /  18.5 °C 29.9in /  1013.9hPa WNW 2.9mph /  4.7km/h 3mph /  4.8km/h 87% 0in /  0.0mm 0 W/m2
03:42 69.3 °F /  20.7 °C 65.3 °F /  18.5 °C 29.9in /  1013.9hPa Calm   4mph /  6.4km/h 87% 0in /  0.0mm 0 W/m2
03:47 69.3 °F /  20.7 °C 64.9 °F /  18.3 °C 29.9in /  1013.9hPa WNW 2mph /  3.2km/h 2mph /  3.2km/h 86% 0in /  0.0mm 0 W/m2
03:52 69.1 °F /  20.6 °C 64.8 °F /  18.2 °C 30in /  1014.2hPa WNW 0.9mph /  1.4km/h 2mph /  3.2km/h 86% 0in /  0.0mm 0 W/m2
03:57 69.1 °F /  20.6 °C 64.8 °F /  18.2 °C 29.9in /  1013.9hPa NW 4.9mph /  7.9km/h 5mph /  8km/h 86% 0in /  0.0mm 0 W/m2
04:02 68.9 °F /  20.5 °C 64.9 °F /  18.3 °C 29.9in /  1013.9hPa East 2mph /  3.2km/h 2mph /  3.2km/h 87% 0in /  0.0mm 0 W/m2
04:07 68.7 °F /  20.4 °C 64.8 °F /  18.2 °C 30in /  1014.2hPa NNW 0.9mph /  1.4km/h 9mph /  14.5km/h 87% 0in /  0.0mm 0 W/m2
04:12 68.7 °F /  20.4 °C 64.4 °F /  18 °C 30in /  1014.2hPa WSW 2mph /  3.2km/h 3mph /  4.8km/h 86% 0in /  0.0mm 0 W/m2
04:17 68.7 °F /  20.4 °C 64.8 °F /  18.2 °C 30in /  1014.2hPa WNW 0.9mph /  1.4km/h 3mph /  4.8km/h 87% 0in /  0.0mm 0 W/m2
04:22 68.5 °F /  20.3 °C 64.6 °F /  18.1 °C 30in /  1014.2hPa South 0.9mph /  1.4km/h 4mph /  6.4km/h 87% 0in /  0.0mm 0 W/m2
04:27 68.4 °F /  20.2 °C 64.4 °F /  18 °C 30in /  1014.2hPa NNW 0.9mph /  1.4km/h 4mph /  6.4km/h 87% 0in /  0.0mm 0 W/m2
04:32 68.2 °F /  20.1 °C 64.2 °F /  17.9 °C 30in /  1014.2hPa SW 0.9mph /  1.4km/h 4mph /  6.4km/h 87% 0in /  0.0mm 0 W/m2
04:37 68.2 °F /  20.1 °C 64.2 °F /  17.9 °C 30in /  1014.2hPa Calm   2mph /  3.2km/h 87% 0in /  0.0mm 0 W/m2
04:42 68 °F /  20 °C 64.4 °F /  18 °C 30in /  1014.2hPa NE 2mph /  3.2km/h 2mph /  3.2km/h 88% 0in /  0.0mm 0 W/m2
04:47 67.8 °F /  19.9 °C 64.2 °F /  17.9 °C 30in /  1014.2hPa Calm   1mph /  1.6km/h 88% 0in /  0.0mm 0 W/m2
04:52 67.8 °F /  19.9 °C 64.2 °F /  17.9 °C 30in /  1014.2hPa Calm   3mph /  4.8km/h 88% 0in /  0.0mm 0 W/m2
04:58 67.8 °F /  19.9 °C 64.2 °F /  17.9 °C 30in /  1014.2hPa NW 2.9mph /  4.7km/h 3mph /  4.8km/h 88% 0in /  0.0mm 0 W/m2
05:03 67.6 °F /  19.8 °C 64 °F /  17.8 °C 30in /  1014.2hPa NW 2.9mph /  4.7km/h 3mph /  4.8km/h 88% 0in /  0.0mm 0 W/m2
05:08 67.6 °F /  19.8 °C 64 °F /  17.8 °C 30in /  1014.2hPa WNW 2mph /  3.2km/h 4mph /  6.4km/h 88% 0in /  0.0mm 0 W/m2
05:13 67.6 °F /  19.8 °C 64 °F /  17.8 °C 30in /  1014.2hPa NW 2mph /  3.2km/h 3mph /  4.8km/h 88% 0in /  0.0mm 0 W/m2
05:18 67.6 °F /  19.8 °C 64 °F /  17.8 °C 30in /  1014.2hPa NE 2mph /  3.2km/h 3mph /  4.8km/h 88% 0in /  0.0mm 0 W/m2
05:23 67.5 °F /  19.7 °C 63.9 °F /  17.7 °C 30in /  1014.6hPa Calm   4mph /  6.4km/h 88% 0in /  0.0mm 0 W/m2
05:28 67.5 °F /  19.7 °C 63.9 °F /  17.7 °C 30in /  1014.6hPa SE 0.9mph /  1.4km/h 3mph /  4.8km/h 88% 0in /  0.0mm 0 W/m2
05:33 67.3 °F /  19.6 °C 63.7 °F /  17.6 °C 30in /  1014.6hPa ESE 0.9mph /  1.4km/h 2mph /  3.2km/h 88% 0in /  0.0mm 0 W/m2
05:38 67.3 °F /  19.6 °C 63.7 °F /  17.6 °C 30in /  1014.6hPa Calm   2mph /  3.2km/h 88% 0in /  0.0mm 0 W/m2
05:43 67.1 °F /  19.5 °C 63.7 °F /  17.6 °C 30in /  1014.6hPa West 4mph /  6.4km/h 7mph /  11.3km/h 89% 0in /  0.0mm 0 W/m2
05:48 66.9 °F /  19.4 °C 63.5 °F /  17.5 °C 30in /  1014.6hPa WNW 2mph /  3.2km/h 4mph /  6.4km/h 89% 0in /  0.0mm 0 W/m2
05:53 66.9 °F /  19.4 °C 63.5 °F /  17.5 °C 30in /  1014.9hPa West 2mph /  3.2km/h 8mph /  12.9km/h 89% 0in /  0.0mm 0 W/m2
05:58 66.9 °F /  19.4 °C 63.5 °F /  17.5 °C 30in /  1014.6hPa NNW 0.9mph /  1.4km/h 4mph /  6.4km/h 89% 0in /  0.0mm 0 W/m2
06:03 66.9 °F /  19.4 °C 63.5 °F /  17.5 °C 30in /  1014.9hPa NW 6.9mph /  11.1km/h 8mph /  12.9km/h 89% 0in /  0.0mm 0 W/m2
06:08 66.7 °F /  19.3 °C 63.3 °F /  17.4 °C 30in /  1014.9hPa NW 0.9mph /  1.4km/h 4mph /  6.4km/h 89% 0in /  0.0mm 0 W/m2
06:13 66.7 °F /  19.3 °C 63.3 °F /  17.4 °C 30in /  1014.9hPa NW 2mph /  3.2km/h 3mph /  4.8km/h 89% 0in /  0.0mm 0 W/m2
06:18 66.7 °F /  19.3 °C 63.3 °F /  17.4 °C 30in /  1014.6hPa West 0.9mph /  1.4km/h 2mph /  3.2km/h 89% 0in /  0.0mm 0 W/m2
06:23 66.7 °F /  19.3 °C 63.3 °F /  17.4 °C 30in /  1014.9hPa West 2mph /  3.2km/h 2mph /  3.2km/h 89% 0in /  0.0mm 0 W/m2
06:28 66.6 °F /  19.2 °C 63.1 °F /  17.3 °C 30in /  1014.9hPa NW 2mph /  3.2km/h 2mph /  3.2km/h 89% 0in /  0.0mm 0 W/m2
06:33 66.6 °F /  19.2 °C 63 °F /  17.2 °C 30in /  1014.9hPa West 4mph /  6.4km/h 7mph /  11.3km/h 88% 0in /  0.0mm 0 W/m2
06:38 66.6 °F /  19.2 °C 63 °F /  17.2 °C 30in /  1015.2hPa West 2.9mph /  4.7km/h 4mph /  6.4km/h 88% 0in /  0.0mm 0 W/m2
06:43 66.4 °F /  19.1 °C 62.8 °F /  17.1 °C 30in /  1015.2hPa NW 2.9mph /  4.7km/h 7mph /  11.3km/h 88% 0in /  0.0mm 0 W/m2
06:48 66.4 °F /  19.1 °C 62.8 °F /  17.1 °C 30in /  1015.2hPa WNW 2mph /  3.2km/h 4mph /  6.4km/h 88% 0in /  0.0mm 0 W/m2
06:53 66.2 °F /  19 °C 62.2 °F /  16.8 °C 30in /  1015.2hPa West 0.9mph /  1.4km/h 4mph /  6.4km/h 87% 0in /  0.0mm 5 W/m2
06:58 66.2 °F /  19 °C 62.2 °F /  16.8 °C 30in /  1015.2hPa West 2mph /  3.2km/h 5mph /  8km/h 87% 0in /  0.0mm 7 W/m2
07:04 66 °F /  18.9 °C 62.1 °F /  16.7 °C 30in /  1015.6hPa West 2mph /  3.2km/h 6mph /  9.7km/h 87% 0in /  0.0mm 11 W/m2
07:09 66 °F /  18.9 °C 61.7 °F /  16.5 °C 30in /  1015.6hPa Calm   3mph /  4.8km/h 86% 0in /  0.0mm 12 W/m2
07:14 66 °F /  18.9 °C 61.7 °F /  16.5 °C 30in /  1015.6hPa WNW 0.9mph /  1.4km/h 6mph /  9.7km/h 86% 0in /  0.0mm 19 W/m2
07:19 65.8 °F /  18.8 °C 61.5 °F /  16.4 °C 30in /  1015.9hPa WNW 0.9mph /  1.4km/h 8mph /  12.9km/h 86% 0in /  0.0mm 25 W/m2
07:24 65.8 °F /  18.8 °C 61.2 °F /  16.2 °C 30in /  1015.9hPa Calm   1mph /  1.6km/h 85% 0in /  0.0mm 28 W/m2
07:29 65.8 °F /  18.8 °C 60.8 °F /  16 °C 30in /  1015.9hPa NW 2.9mph /  4.7km/h 8mph /  12.9km/h 84% 0in /  0.0mm 33 W/m2
07:34 66 °F /  18.9 °C 60.6 °F /  15.9 °C 30in /  1015.9hPa WSW 2mph /  3.2km/h 3mph /  4.8km/h 83% 0in /  0.0mm 35 W/m2
07:39 66 °F /  18.9 °C 60.6 °F /  15.9 °C 30in /  1015.9hPa WNW 2mph /  3.2km/h 8mph /  12.9km/h 83% 0in /  0.0mm 47 W/m2
07:44 66 °F /  18.9 °C 60.6 °F /  15.9 °C 30in /  1015.9hPa WNW 2mph /  3.2km/h 3mph /  4.8km/h 83% 0in /  0.0mm 54 W/m2
07:49 66 °F /  18.9 °C 60.6 °F /  15.9 °C 30in /  1016.3hPa West 2.9mph /  4.7km/h 3mph /  4.8km/h 83% 0in /  0.0mm 49 W/m2
07:54 65.8 °F /  18.8 °C 60.3 °F /  15.7 °C 30in /  1016.3hPa NW 0.9mph /  1.4km/h 4mph /  6.4km/h 82% 0in /  0.0mm 56 W/m2
07:59 65.8 °F /  18.8 °C 60.3 °F /  15.7 °C 30in /  1016.3hPa NW 6.9mph /  11.1km/h 7mph /  11.3km/h 82% 0in /  0.0mm 56 W/m2
08:04 65.8 °F /  18.8 °C 59.5 °F /  15.3 °C 30in /  1016.3hPa WNW 2.9mph /  4.7km/h 3mph /  4.8km/h 80% 0in /  0.0mm 65 W/m2
08:09 65.8 °F /  18.8 °C 59.2 °F /  15.1 °C 30in /  1016.3hPa West 2mph /  3.2km/h 4mph /  6.4km/h 79% 0in /  0.0mm 79 W/m2
08:14 65.8 °F /  18.8 °C 59.2 °F /  15.1 °C 30in /  1016.3hPa West 4mph /  6.4km/h 4mph /  6.4km/h 79% 0in /  0.0mm 84 W/m2
08:19 65.8 °F /  18.8 °C 58.8 °F /  14.9 °C 30in /  1016.3hPa WSW 2.9mph /  4.7km/h 4mph /  6.4km/h 78% 0in /  0.0mm 86 W/m2
08:24 65.8 °F /  18.8 °C 58.8 °F /  14.9 °C 30in /  1016.3hPa West 2mph /  3.2km/h 4mph /  6.4km/h 78% 0in /  0.0mm 102 W/m2
08:29 65.8 °F /  18.8 °C 58.8 °F /  14.9 °C 30in /  1016.3hPa WNW 2.9mph /  4.7km/h 7mph /  11.3km/h 78% 0in /  0.0mm 107 W/m2
08:34 65.8 °F /  18.8 °C 58.8 °F /  14.9 °C 30in /  1016.3hPa WSW 2.9mph /  4.7km/h 6mph /  9.7km/h 78% 0in /  0.0mm 105 W/m2
08:39 65.7 °F /  18.7 °C 58.3 °F /  14.6 °C 30in /  1016.3hPa West 2.9mph /  4.7km/h 7mph /  11.3km/h 77% 0in /  0.0mm 100 W/m2
08:44 65.7 °F /  18.7 °C 58.3 °F /  14.6 °C 30in /  1016.3hPa West 8.1mph /  13km/h 8mph /  12.9km/h 77% 0in /  0.0mm 95 W/m2
08:49 65.7 °F /  18.7 °C 57.9 °F /  14.4 °C 30in /  1016.3hPa SW 2.9mph /  4.7km/h 8mph /  12.9km/h 76% 0in /  0.0mm 83 W/m2
08:54 65.5 °F /  18.6 °C 57.7 °F /  14.3 °C 30in /  1016.3hPa WNW 4mph /  6.4km/h 13mph /  20.9km/h 76% 0in /  0.0mm 77 W/m2
08:59 65.5 °F /  18.6 °C 57.7 °F /  14.3 °C 30in /  1016.3hPa West 2.9mph /  4.7km/h 7mph /  11.3km/h 76% 0in /  0.0mm 104 W/m2
09:04 65.5 °F /  18.6 °C 57.7 °F /  14.3 °C 30in /  1016.3hPa West 6.9mph /  11.1km/h 8mph /  12.9km/h 76% 0in /  0.0mm 118 W/m2
09:09 65.5 °F /  18.6 °C 57.7 °F /  14.3 °C 30in /  1016.3hPa WNW 2mph /  3.2km/h 7mph /  11.3km/h 76% 0in /  0.0mm 244 W/m2
09:14 65.7 °F /  18.7 °C 57.6 °F /  14.2 °C 30in /  1016.6hPa WSW 4mph /  6.4km/h 11mph /  17.7km/h 75% 0in /  0.0mm 315 W/m2
09:19 66 °F /  18.9 °C 57.6 °F /  14.2 °C 30in /  1016.6hPa West 6.9mph /  11.1km/h 14mph /  22.5km/h 74% 0in /  0.0mm 306 W/m2
09:24 66.4 °F /  19.1 °C 57.9 °F /  14.4 °C 30in /  1016.3hPa NNW 4mph /  6.4km/h 10mph /  16.1km/h 74% 0in /  0.0mm 227 W/m2
09:29 66.7 °F /  19.3 °C 57.7 °F /  14.3 °C 30in /  1016.6hPa West 2.9mph /  4.7km/h 12mph /  19.3km/h 73% 0in /  0.0mm 53 W/m2
09:34 66.7 °F /  19.3 °C 57.7 °F /  14.3 °C 30in /  1016.6hPa West 6mph /  9.7km/h 10mph /  16.1km/h 73% 0in /  0.0mm 218 W/m2
09:39 66.9 °F /  19.4 °C 57.6 °F /  14.2 °C 30in /  1016.6hPa WNW 4mph /  6.4km/h 11mph /  17.7km/h 72% 0in /  0.0mm 403 W/m2
09:44 67.5 °F /  19.7 °C 58.1 °F /  14.5 °C 30in /  1016.6hPa WNW 4mph /  6.4km/h 6mph /  9.7km/h 72% 0in /  0.0mm 415 W/m2
09:49 67.6 °F /  19.8 °C 57.9 °F /  14.4 °C 30in /  1016.6hPa NW 2mph /  3.2km/h 12mph /  19.3km/h 71% 0in /  0.0mm 425 W/m2
09:54 68.2 °F /  20.1 °C 58.8 °F /  14.9 °C 30in /  1016.6hPa NW 2mph /  3.2km/h 4mph /  6.4km/h 72% 0in /  0.0mm 443 W/m2
09:59 68.4 °F /  20.2 °C 58.3 °F /  14.6 °C 30in /  1016.6hPa WNW 4mph /  6.4km/h 12mph /  19.3km/h 70% 0in /  0.0mm 455 W/m2
10:04 68.5 °F /  20.3 °C 58.3 °F /  14.6 °C 30in /  1016.6hPa WNW 4.9mph /  7.9km/h 10mph /  16.1km/h 70% 0in /  0.0mm 466 W/m2
10:09 68.7 °F /  20.4 °C 58.5 °F /  14.7 °C 30in /  1016.6hPa WSW 4mph /  6.4km/h 7mph /  11.3km/h 70% 0in /  0.0mm 480 W/m2
10:14 69.1 °F /  20.6 °C 58.5 °F /  14.7 °C 30in /  1016.6hPa WSW 4.9mph /  7.9km/h 10mph /  16.1km/h 69% 0in /  0.0mm 494 W/m2
10:19 69.1 °F /  20.6 °C 58.5 °F /  14.7 °C 30in /  1016.6hPa NW 4.9mph /  7.9km/h 13mph /  20.9km/h 69% 0in /  0.0mm 503 W/m2
10:24 69.3 °F /  20.7 °C 58.6 °F /  14.8 °C 30in /  1016.6hPa WNW 6.9mph /  11.1km/h 12mph /  19.3km/h 69% 0in /  0.0mm 522 W/m2
10:29 69.4 °F /  20.8 °C 58.8 °F /  14.9 °C 30in /  1016.6hPa WSW 2.9mph /  4.7km/h 10mph /  16.1km/h 69% 0in /  0.0mm 534 W/m2
10:34 69.8 °F /  21 °C 58.8 °F /  14.9 °C 30in /  1016.6hPa WSW 8.9mph /  14.3km/h 11mph /  17.7km/h 68% 0in /  0.0mm 538 W/m2
10:39 70 °F /  21.1 °C 58.1 °F /  14.5 °C 30in /  1016.6hPa WNW 10.1mph /  16.3km/h 15mph /  24.1km/h 66% 0in /  0.0mm 564 W/m2
10:44 70 °F /  21.1 °C 57.7 °F /  14.3 °C 30in /  1016.6hPa NW 11mph /  17.7km/h 11mph /  17.7km/h 65% 0in /  0.0mm 566 W/m2
10:49 70.3 °F /  21.3 °C 57.6 °F /  14.2 °C 30in /  1016.6hPa WSW 12.1mph /  19.5km/h 14mph /  22.5km/h 64% 0in /  0.0mm 573 W/m2
10:54 70.3 °F /  21.3 °C 57.2 °F /  14 °C 30in /  1016.6hPa WNW 6.9mph /  11.1km/h 13mph /  20.9km/h 63% 0in /  0.0mm 591 W/m2
10:59 70.5 °F /  21.4 °C 58.1 °F /  14.5 °C 30in /  1016.9hPa West 13mph /  20.9km/h 13mph /  20.9km/h 65% 0in /  0.0mm 599 W/m2
11:04 70.5 °F /  21.4 °C 58.1 °F /  14.5 °C 30in /  1016.6hPa NNW 4mph /  6.4km/h 9mph /  14.5km/h 65% 0in /  0.0mm 635 W/m2
11:09 71.1 °F /  21.7 °C 58.3 °F /  14.6 °C 30in /  1016.6hPa WNW 6mph /  9.7km/h 12mph /  19.3km/h 64% 0in /  0.0mm 668 W/m2
11:14 71.2 °F /  21.8 °C 57.9 °F /  14.4 °C 30in /  1016.6hPa NW 2mph /  3.2km/h 7mph /  11.3km/h 63% 0in /  0.0mm 656 W/m2
11:19 71.8 °F /  22.1 °C 57.6 °F /  14.2 °C 30in /  1016.9hPa NW 4mph /  6.4km/h 10mph /  16.1km/h 61% 0in /  0.0mm 670 W/m2
11:24 71.6 °F /  22 °C 57.9 °F /  14.4 °C 30in /  1016.9hPa WNW 8.1mph /  13km/h 12mph /  19.3km/h 62% 0in /  0.0mm 708 W/m2
11:29 71.4 °F /  21.9 °C 57.2 °F /  14 °C 30in /  1016.9hPa WNW 4mph /  6.4km/h 8mph /  12.9km/h 61% 0in /  0.0mm 708 W/m2
11:34 71.4 °F /  21.9 °C 56.8 °F /  13.8 °C 30in /  1016.9hPa SW 8.1mph /  13km/h 15mph /  24.1km/h 60% 0in /  0.0mm 735 W/m2
11:39 71.8 °F /  22.1 °C 56.7 °F /  13.7 °C 30in /  1016.9hPa West 6mph /  9.7km/h 12mph /  19.3km/h 59% 0in /  0.0mm 726 W/m2
11:44 72.3 °F /  22.4 °C 57.7 °F /  14.3 °C 30in /  1016.6hPa WNW 6.9mph /  11.1km/h 14mph /  22.5km/h 60% 0in /  0.0mm 738 W/m2
11:49 72.7 °F /  22.6 °C 57.6 °F /  14.2 °C 30in /  1016.6hPa NW 2.9mph /  4.7km/h 7mph /  11.3km/h 59% 0in /  0.0mm 714 W/m2
11:54 72.9 °F /  22.7 °C 56.7 °F /  13.7 °C 30in /  1016.9hPa NNW 11mph /  17.7km/h 14mph /  22.5km/h 57% 0in /  0.0mm 744 W/m2
11:59 72.9 °F /  22.7 °C 57.2 °F /  14 °C 30in /  1016.9hPa NW 4.9mph /  7.9km/h 15mph /  24.1km/h 58% 0in /  0.0mm 756 W/m2
12:04 73.4 °F /  23 °C 57.2 °F /  14 °C 30in /  1016.9hPa NW 2mph /  3.2km/h 8mph /  12.9km/h 57% 0in /  0.0mm 754 W/m2
12:09 73.8 °F /  23.2 °C 57 °F /  13.9 °C 30in /  1016.9hPa SW 6.9mph /  11.1km/h 15mph /  24.1km/h 56% 0in /  0.0mm 812 W/m2
12:14 73.6 °F /  23.1 °C 57.4 °F /  14.1 °C 30in /  1016.9hPa NW 4.9mph /  7.9km/h 13mph /  20.9km/h 57% 0in /  0.0mm 828 W/m2
12:19 73.4 °F /  23 °C 57.2 °F /  14 °C 30in /  1016.9hPa WNW 2.9mph /  4.7km/h 13mph /  20.9km/h 57% 0in /  0.0mm 810 W/m2
12:24 73.4 °F /  23 °C 57.2 °F /  14 °C 30in /  1016.9hPa WSW 15mph /  24.1km/h 15mph /  24.1km/h 57% 0in /  0.0mm 844 W/m2
12:30 73.9 °F /  23.3 °C 57.2 °F /  14 °C 30in /  1016.6hPa NW 6mph /  9.7km/h 12mph /  19.3km/h 56% 0in /  0.0mm 860 W/m2
12:35 73.8 °F /  23.2 °C 57.6 °F /  14.2 °C 30in /  1016.6hPa SSW 8.1mph /  13km/h 13mph /  20.9km/h 57% 0in /  0.0mm 162 W/m2
12:40 73.9 °F /  23.3 °C 57.2 °F /  14 °C 30in /  1016.9hPa WSW 4mph /  6.4km/h 10mph /  16.1km/h 56% 0in /  0.0mm 819 W/m2
12:45 74.1 °F /  23.4 °C 56.8 °F /  13.8 °C 30in /  1016.9hPa NW 2.9mph /  4.7km/h 12mph /  19.3km/h 55% 0in /  0.0mm 211 W/m2
12:50 73.9 °F /  23.3 °C 57.2 °F /  14 °C 30in /  1016.9hPa WNW 8.9mph /  14.3km/h 9mph /  14.5km/h 56% 0in /  0.0mm 889 W/m2
12:55 74.3 °F /  23.5 °C 58.1 °F /  14.5 °C 30in /  1016.9hPa West 6mph /  9.7km/h 11mph /  17.7km/h 57% 0in /  0.0mm 919 W/m2
13:00 74.3 °F /  23.5 °C 57.6 °F /  14.2 °C 30in /  1016.9hPa WNW 8.9mph /  14.3km/h 12mph /  19.3km/h 56% 0in /  0.0mm 926 W/m2
13:05 73.9 °F /  23.3 °C 57.2 °F /  14 °C 30in /  1016.9hPa West 2.9mph /  4.7km/h 15mph /  24.1km/h 56% 0in /  0.0mm 232 W/m2
13:10 74.7 °F /  23.7 °C 57.9 °F /  14.4 °C 30in /  1016.9hPa WNW 2mph /  3.2km/h 4mph /  6.4km/h 56% 0in /  0.0mm 940 W/m2
13:15 74.7 °F /  23.7 °C 56.8 °F /  13.8 °C 30in /  1016.9hPa NNW 4mph /  6.4km/h 14mph /  22.5km/h 54% 0in /  0.0mm 846 W/m2
13:20 74.7 °F /  23.7 °C 57.4 °F /  14.1 °C 30in /  1016.9hPa WSW 4mph /  6.4km/h 8mph /  12.9km/h 55% 0in /  0.0mm 849 W/m2
13:25 75 °F /  23.9 °C 57.7 °F /  14.3 °C 30in /  1016.9hPa WNW 10.1mph /  16.3km/h 14mph /  22.5km/h 55% 0in /  0.0mm 904 W/m2
13:30 74.8 °F /  23.8 °C 57 °F /  13.9 °C 30in /  1016.9hPa West 11mph /  17.7km/h 12mph /  19.3km/h 54% 0in /  0.0mm 881 W/m2
13:35 73.9 °F /  23.3 °C 56.3 °F /  13.5 °C 30in /  1016.9hPa WSW 4mph /  6.4km/h 18mph /  29km/h 54% 0in /  0.0mm 174 W/m2
13:40 73.8 °F /  23.2 °C 57 °F /  13.9 °C 30in /  1016.9hPa NW 4mph /  6.4km/h 8mph /  12.9km/h 56% 0in /  0.0mm 174 W/m2
13:45 73.9 °F /  23.3 °C 56.8 °F /  13.8 °C 30in /  1016.9hPa North 4mph /  6.4km/h 18mph /  29km/h 55% 0in /  0.0mm 160 W/m2
13:50 74.5 °F /  23.6 °C 56.7 °F /  13.7 °C 30in /  1016.9hPa West 6mph /  9.7km/h 8mph /  12.9km/h 54% 0in /  0.0mm 244 W/m2
13:55 74.1 °F /  23.4 °C 56.5 °F /  13.6 °C 30in /  1016.9hPa WSW 4mph /  6.4km/h 9mph /  14.5km/h 54% 0in /  0.0mm 244 W/m2
14:00 74.5 °F /  23.6 °C 56.7 °F /  13.7 °C 30in /  1016.9hPa WNW 8.9mph /  14.3km/h 9mph /  14.5km/h 54% 0in /  0.0mm 404 W/m2
14:05 74.7 °F /  23.7 °C 56.8 °F /  13.8 °C 30in /  1016.9hPa West 6mph /  9.7km/h 8mph /  12.9km/h 54% 0in /  0.0mm 988 W/m2
14:10 75 °F /  23.9 °C 57.2 °F /  14 °C 30in /  1016.9hPa WNW 4mph /  6.4km/h 7mph /  11.3km/h 54% 0in /  0.0mm 378 W/m2
14:15 75 °F /  23.9 °C 56.7 °F /  13.7 °C 30in /  1016.9hPa WNW 4.9mph /  7.9km/h 9mph /  14.5km/h 53% 0in /  0.0mm 348 W/m2
14:20 75 °F /  23.9 °C 56.7 °F /  13.7 °C 30in /  1016.9hPa SW 8.9mph /  14.3km/h 14mph /  22.5km/h 53% 0in /  0.0mm 357 W/m2
14:26 74.8 °F /  23.8 °C 57 °F /  13.9 °C 30in /  1016.9hPa WNW 2.9mph /  4.7km/h 9mph /  14.5km/h 54% 0in /  0.0mm 330 W/m2
14:31 74.8 °F /  23.8 °C 57 °F /  13.9 °C 30in /  1016.9hPa NW 6.9mph /  11.1km/h 8mph /  12.9km/h 54% 0in /  0.0mm 849 W/m2
14:36 75.4 °F /  24.1 °C 57 °F /  13.9 °C 30in /  1016.9hPa NNW 8.1mph /  13km/h 15mph /  24.1km/h 53% 0in /  0.0mm 802 W/m2
14:41 74.8 °F /  23.8 °C 57 °F /  13.9 °C 30in /  1016.9hPa West 11mph /  17.7km/h 11mph /  17.7km/h 54% 0in /  0.0mm 214 W/m2
14:46 74.7 °F /  23.7 °C 56.8 °F /  13.8 °C 30in /  1016.9hPa WSW 4.9mph /  7.9km/h 10mph /  16.1km/h 54% 0in /  0.0mm 251 W/m2
14:51 74.1 °F /  23.4 °C 55.9 °F /  13.3 °C 30in /  1016.9hPa West 6mph /  9.7km/h 12mph /  19.3km/h 53% 0in /  0.0mm 214 W/m2
14:56 73.9 °F /  23.3 °C 56.3 °F /  13.5 °C 30in /  1016.9hPa West 6.9mph /  11.1km/h 15mph /  24.1km/h 54% 0in /  0.0mm 132 W/m2
15:01 73.8 °F /  23.2 °C 56.7 °F /  13.7 °C 30in /  1016.9hPa West 4mph /  6.4km/h 11mph /  17.7km/h 55% 0in /  0.0mm 236 W/m2
15:06 74.5 °F /  23.6 °C 57.2 °F /  14 °C 30in /  1016.9hPa West 6mph /  9.7km/h 8mph /  12.9km/h 55% 0in /  0.0mm 856 W/m2
15:11 75.2 °F /  24 °C 57.9 °F /  14.4 °C 30in /  1016.9hPa WSW 4.9mph /  7.9km/h 10mph /  16.1km/h 55% 0in /  0.0mm 142 W/m2
15:16 75.6 °F /  24.2 °C 56.7 °F /  13.7 °C 30in /  1016.9hPa West 10.1mph /  16.3km/h 11mph /  17.7km/h 52% 0in /  0.0mm 798 W/m2
15:21 75.9 °F /  24.4 °C 56.5 °F /  13.6 °C 30in /  1016.9hPa West 8.1mph /  13km/h 11mph /  17.7km/h 51% 0in /  0.0mm 677 W/m2
15:26 76.1 °F /  24.5 °C 56.1 °F /  13.4 °C 30in /  1016.6hPa SW 12.1mph /  19.5km/h 18mph /  29km/h 50% 0in /  0.0mm 701 W/m2
15:31 76.1 °F /  24.5 °C 56.1 °F /  13.4 °C 30in /  1016.6hPa Calm   8mph /  12.9km/h 50% 0in /  0.0mm 640 W/m2
15:36 75.9 °F /  24.4 °C 55.9 °F /  13.3 °C 30in /  1016.6hPa West 6.9mph /  11.1km/h 18mph /  29km/h 50% 0in /  0.0mm 165 W/m2
15:41 75.2 °F /  24 °C 55.8 °F /  13.2 °C 30in /  1016.6hPa NW 2.9mph /  4.7km/h 9mph /  14.5km/h 51% 0in /  0.0mm 181 W/m2
15:46 74.8 °F /  23.8 °C 56.1 °F /  13.4 °C 30in /  1016.6hPa WSW 4mph /  6.4km/h 12mph /  19.3km/h 52% 0in /  0.0mm 308 W/m2
15:51 75.4 °F /  24.1 °C 55.9 °F /  13.3 °C 30in /  1016.6hPa NNW 4.9mph /  7.9km/h 8mph /  12.9km/h 51% 0in /  0.0mm 179 W/m2
15:56 75.4 °F /  24.1 °C 55.9 °F /  13.3 °C 30in /  1016.6hPa WNW 4.9mph /  7.9km/h 8mph /  12.9km/h 51% 0in /  0.0mm 206 W/m2
16:01 75 °F /  23.9 °C 55.6 °F /  13.1 °C 30in /  1016.6hPa NNW 6mph /  9.7km/h 7mph /  11.3km/h 51% 0in /  0.0mm 123 W/m2
16:06 74.8 °F /  23.8 °C 56.1 °F /  13.4 °C 30in /  1016.6hPa WSW 4.9mph /  7.9km/h 5mph /  8km/h 52% 0in /  0.0mm 135 W/m2
16:11 75 °F /  23.9 °C 55.6 °F /  13.1 °C 30in /  1016.6hPa WSW 4mph /  6.4km/h 4mph /  6.4km/h 51% 0in /  0.0mm 190 W/m2
16:16 75.4 °F /  24.1 °C 55.9 °F /  13.3 °C 30in /  1016.6hPa West 6.9mph /  11.1km/h 8mph /  12.9km/h 51% 0in /  0.0mm 223 W/m2
16:21 75.6 °F /  24.2 °C 55 °F /  12.8 °C 30in /  1016.6hPa WSW 10.1mph /  16.3km/h 10mph /  16.1km/h 49% 0in /  0.0mm 181 W/m2
16:26 75.4 °F /  24.1 °C 54.9 °F /  12.7 °C 30in /  1016.6hPa SW 2mph /  3.2km/h 6mph /  9.7km/h 49% 0in /  0.0mm 105 W/m2
16:31 75.2 °F /  24 °C 54.7 °F /  12.6 °C 30in /  1016.3hPa West 2.9mph /  4.7km/h 7mph /  11.3km/h 49% 0in /  0.0mm 192 W/m2
16:36 75.6 °F /  24.2 °C 55 °F /  12.8 °C 30in /  1016.3hPa West 11mph /  17.7km/h 15mph /  24.1km/h 49% 0in /  0.0mm 290 W/m2
16:41 75.4 °F /  24.1 °C 54.9 °F /  12.7 °C 30in /  1016.3hPa WNW 6mph /  9.7km/h 13mph /  20.9km/h 49% 0in /  0.0mm 213 W/m2
16:46 75.6 °F /  24.2 °C 55 °F /  12.8 °C 30in /  1016.3hPa West 6.9mph /  11.1km/h 15mph /  24.1km/h 49% 0in /  0.0mm 195 W/m2
16:51 75.4 °F /  24.1 °C 54.9 °F /  12.7 °C 30in /  1016.3hPa West 6.9mph /  11.1km/h 12mph /  19.3km/h 49% 0in /  0.0mm 206 W/m2
16:56 75.4 °F /  24.1 °C 54.9 °F /  12.7 °C 30in /  1016.3hPa West 6.9mph /  11.1km/h 13mph /  20.9km/h 49% 0in /  0.0mm 264 W/m2
17:01 75.6 °F /  24.2 °C 55 °F /  12.8 °C 30in /  1016.3hPa WSW 2.9mph /  4.7km/h 8mph /  12.9km/h 49% 0in /  0.0mm 290 W/m2
17:06 75.7 °F /  24.3 °C 55.2 °F /  12.9 °C 30in /  1016.3hPa WSW 2.9mph /  4.7km/h 11mph /  17.7km/h 49% 0in /  0.0mm 274 W/m2
17:11 75.9 °F /  24.4 °C 54.9 °F /  12.7 °C 30in /  1016.3hPa WSW 8.1mph /  13km/h 10mph /  16.1km/h 48% 0in /  0.0mm 260 W/m2
17:16 75.9 °F /  24.4 °C 54.9 °F /  12.7 °C 30in /  1016.3hPa NW 10.1mph /  16.3km/h 13mph /  20.9km/h 48% 0in /  0.0mm 278 W/m2
17:21 75.9 °F /  24.4 °C 55.4 °F /  13 °C 30in /  1016.3hPa NW 2mph /  3.2km/h 4mph /  6.4km/h 49% 0in /  0.0mm 366 W/m2
17:26 76.3 °F /  24.6 °C 55.8 °F /  13.2 °C 30in /  1016.3hPa West 2mph /  3.2km/h 6mph /  9.7km/h 49% 0in /  0.0mm 246 W/m2
17:31 76.3 °F /  24.6 °C 55.2 °F /  12.9 °C 30in /  1016.3hPa NW 6mph /  9.7km/h 10mph /  16.1km/h 48% 0in /  0.0mm 239 W/m2
17:37 75.9 °F /  24.4 °C 54.9 °F /  12.7 °C 30in /  1016.3hPa West 6mph /  9.7km/h 7mph /  11.3km/h 48% 0in /  0.0mm 274 W/m2
17:42 76.1 °F /  24.5 °C 55 °F /  12.8 °C 30in /  1016.3hPa WSW 12.1mph /  19.5km/h 13mph /  20.9km/h 48% 0in /  0.0mm 287 W/m2
17:47 76.1 °F /  24.5 °C 55 °F /  12.8 °C 30in /  1016.3hPa SE 0.9mph /  1.4km/h 8mph /  12.9km/h 48% 0in /  0.0mm 290 W/m2
17:52 76.3 °F /  24.6 °C 54.5 °F /  12.5 °C 30in /  1016.3hPa NW 2.9mph /  4.7km/h 13mph /  20.9km/h 47% 0in /  0.0mm 260 W/m2
17:57 76.1 °F /  24.5 °C 54.3 °F /  12.4 °C 30in /  1016.3hPa SSW 4.9mph /  7.9km/h 8mph /  12.9km/h 47% 0in /  0.0mm 260 W/m2
18:02 76.3 °F /  24.6 °C 54.5 °F /  12.5 °C 30in /  1016.3hPa WSW 6.9mph /  11.1km/h 11mph /  17.7km/h 47% 0in /  0.0mm 213 W/m2
18:07 76.3 °F /  24.6 °C 54 °F /  12.2 °C 30in /  1016.3hPa WNW 4mph /  6.4km/h 7mph /  11.3km/h 46% 0in /  0.0mm 171 W/m2
18:12 76.3 °F /  24.6 °C 54 °F /  12.2 °C 30in /  1015.9hPa WNW 2.9mph /  4.7km/h 10mph /  16.1km/h 46% 0in /  0.0mm 227 W/m2
18:17 76.3 °F /  24.6 °C 54 °F /  12.2 °C 30in /  1015.9hPa West 6mph /  9.7km/h 7mph /  11.3km/h 46% 0in /  0.0mm 251 W/m2
18:22 76.3 °F /  24.6 °C 53.4 °F /  11.9 °C 30in /  1016.3hPa SW 6mph /  9.7km/h 8mph /  12.9km/h 45% 0in /  0.0mm 178 W/m2
18:27 76.3 °F /  24.6 °C 54 °F /  12.2 °C 30in /  1015.9hPa SW 0.9mph /  1.4km/h 8mph /  12.9km/h 46% 0in /  0.0mm 153 W/m2
18:32 76.1 °F /  24.5 °C 53.8 °F /  12.1 °C 30in /  1015.9hPa West 2.9mph /  4.7km/h 6mph /  9.7km/h 46% 0in /  0.0mm 155 W/m2
18:37 75.9 °F /  24.4 °C 53.6 °F /  12 °C 30in /  1015.9hPa WSW 4.9mph /  7.9km/h 9mph /  14.5km/h 46% 0in /  0.0mm 156 W/m2
18:42 75.9 °F /  24.4 °C 53.1 °F /  11.7 °C 30in /  1015.9hPa NW 11mph /  17.7km/h 13mph /  20.9km/h 45% 0in /  0.0mm 206 W/m2
18:47 76.3 °F /  24.6 °C 53.4 °F /  11.9 °C 30in /  1015.9hPa NNW 4mph /  6.4km/h 6mph /  9.7km/h 45% 0in /  0.0mm 207 W/m2
18:52 76.5 °F /  24.7 °C 53.6 °F /  12 °C 30in /  1015.9hPa West 6.9mph /  11.1km/h 11mph /  17.7km/h 45% 0in /  0.0mm 206 W/m2
18:57 76.5 °F /  24.7 °C 53.6 °F /  12 °C 30in /  1015.9hPa West 6mph /  9.7km/h 10mph /  16.1km/h 45% 0in /  0.0mm 248 W/m2
19:02 75.9 °F /  24.4 °C 53.1 °F /  11.7 °C 30in /  1015.9hPa NW 6mph /  9.7km/h 9mph /  14.5km/h 45% 0in /  0.0mm 81 W/m2
19:07 75.6 °F /  24.2 °C 53.2 °F /  11.8 °C 30in /  1015.9hPa WNW 2.9mph /  4.7km/h 7mph /  11.3km/h 46% 0in /  0.0mm 77 W/m2
19:12 75.4 °F /  24.1 °C 53.2 °F /  11.8 °C 30in /  1015.9hPa SW 2mph /  3.2km/h 10mph /  16.1km/h 46% 0in /  0.0mm 137 W/m2
19:17 75.2 °F /  24 °C 53.6 °F /  12 °C 30in /  1015.9hPa WNW 2.9mph /  4.7km/h 7mph /  11.3km/h 47% 0in /  0.0mm 123 W/m2
19:22 75.4 °F /  24.1 °C 53.8 °F /  12.1 °C 30in /  1015.9hPa NW 2.9mph /  4.7km/h 7mph /  11.3km/h 47% 0in /  0.0mm 197 W/m2
19:27 75.4 °F /  24.1 °C 53.8 °F /  12.1 °C 30in /  1015.9hPa NW 4mph /  6.4km/h 8mph /  12.9km/h 47% 0in /  0.0mm 162 W/m2
19:32 75.4 °F /  24.1 °C 54.3 °F /  12.4 °C 30in /  1015.9hPa WSW 0.9mph /  1.4km/h 6mph /  9.7km/h 48% 0in /  0.0mm 91 W/m2
19:37 75.2 °F /  24 °C 53.6 °F /  12 °C 30in /  1015.9hPa WNW 2.9mph /  4.7km/h 6mph /  9.7km/h 47% 0in /  0.0mm 44 W/m2
19:42 75 °F /  23.9 °C 54 °F /  12.2 °C 30in /  1015.9hPa WNW 2.9mph /  4.7km/h 9mph /  14.5km/h 48% 0in /  0.0mm 37 W/m2
19:47 74.8 °F /  23.8 °C 53.8 °F /  12.1 °C 30in /  1015.9hPa SW 2mph /  3.2km/h 9mph /  14.5km/h 48% 0in /  0.0mm 35 W/m2
19:52 74.5 °F /  23.6 °C 54.1 °F /  12.3 °C 30in /  1015.9hPa West 2mph /  3.2km/h 2mph /  3.2km/h 49% 0in /  0.0mm 30 W/m2
19:57 74.1 °F /  23.4 °C 53.8 °F /  12.1 °C 30in /  1015.9hPa West 0.9mph /  1.4km/h 4mph /  6.4km/h 49% 0in /  0.0mm 28 W/m2
20:02 73.9 °F /  23.3 °C 54.1 °F /  12.3 °C 30in /  1015.9hPa WNW 2mph /  3.2km/h 3mph /  4.8km/h 50% 0in /  0.0mm 26 W/m2
20:07 73.8 °F /  23.2 °C 54 °F /  12.2 °C 30in /  1015.9hPa WNW 2mph /  3.2km/h 4mph /  6.4km/h 50% 0in /  0.0mm 18 W/m2
20:12 73.6 °F /  23.1 °C 53.8 °F /  12.1 °C 30in /  1015.9hPa WSW 6mph /  9.7km/h 11mph /  17.7km/h 50% 0in /  0.0mm 14 W/m2
20:18 73.6 °F /  23.1 °C 53.8 °F /  12.1 °C 30in /  1015.9hPa WNW 4mph /  6.4km/h 7mph /  11.3km/h 50% 0in /  0.0mm 12 W/m2
20:23 73.6 °F /  23.1 °C 53.8 °F /  12.1 °C 30in /  1015.9hPa WNW 2mph /  3.2km/h 4mph /  6.4km/h 50% 0in /  0.0mm 11 W/m2
20:28 73.6 °F /  23.1 °C 53.8 °F /  12.1 °C 30in /  1016.3hPa West 8.1mph /  13km/h 10mph /  16.1km/h 50% 0in /  0.0mm 9 W/m2
20:33 73.6 °F /  23.1 °C 54.3 °F /  12.4 °C 30in /  1016.3hPa SW 2mph /  3.2km/h 3mph /  4.8km/h 51% 0in /  0.0mm 5 W/m2
20:38 73.2 °F /  22.9 °C 54 °F /  12.2 °C 30in /  1016.3hPa SSW 0.9mph /  1.4km/h 10mph /  16.1km/h 51% 0in /  0.0mm 0 W/m2
20:43 73 °F /  22.8 °C 53.8 °F /  12.1 °C 30in /  1016.3hPa West 2.9mph /  4.7km/h 4mph /  6.4km/h 51% 0in /  0.0mm 0 W/m2
20:48 73 °F /  22.8 °C 53.8 °F /  12.1 °C 30in /  1016.3hPa WNW 2mph /  3.2km/h 8mph /  12.9km/h 51% 0in /  0.0mm 0 W/m2
20:53 72.9 °F /  22.7 °C 53.6 °F /  12 °C 30in /  1016.3hPa WSW 0.9mph /  1.4km/h 9mph /  14.5km/h 51% 0in /  0.0mm 0 W/m2
20:58 72.7 °F /  22.6 °C 54 °F /  12.2 °C 30in /  1016.3hPa NW 2.9mph /  4.7km/h 6mph /  9.7km/h 52% 0in /  0.0mm 0 W/m2
21:03 72.7 °F /  22.6 °C 54 °F /  12.2 °C 30in /  1016.3hPa WSW 2.9mph /  4.7km/h 5mph /  8km/h 52% 0in /  0.0mm 0 W/m2
21:08 72.3 °F /  22.4 °C 53.8 °F /  12.1 °C 30in /  1016.3hPa West 2.9mph /  4.7km/h 3mph /  4.8km/h 52% 0in /  0.0mm 0 W/m2
21:13 72.1 °F /  22.3 °C 54.1 °F /  12.3 °C 30in /  1016.3hPa Calm   2mph /  3.2km/h 53% 0in /  0.0mm 0 W/m2
21:18 72 °F /  22.2 °C 54.3 °F /  12.4 °C 30in /  1016.3hPa West 0.9mph /  1.4km/h 2mph /  3.2km/h 54% 0in /  0.0mm 0 W/m2
21:23 71.4 °F /  21.9 °C 54.9 °F /  12.7 °C 30in /  1016.3hPa Calm   1mph /  1.6km/h 56% 0in /  0.0mm 0 W/m2
21:28 71.1 °F /  21.7 °C 55 °F /  12.8 °C 30in /  1016.6hPa West 2mph /  3.2km/h 2mph /  3.2km/h 57% 0in /  0.0mm 0 W/m2
21:33 70.3 °F /  21.3 °C 55.4 °F /  13 °C 30in /  1016.3hPa Calm     59% 0in /  0.0mm 0 W/m2
21:38 70 °F /  21.1 °C 55.4 °F /  13 °C 30in /  1016.6hPa Calm   2mph /  3.2km/h 60% 0in /  0.0mm 0 W/m2
21:43 69.4 °F /  20.8 °C 54.9 °F /  12.7 °C 30in /  1016.3hPa West 0.9mph /  1.4km/h 1mph /  1.6km/h 60% 0in /  0.0mm 0 W/m2
21:48 69.1 °F /  20.6 °C 55.6 °F /  13.1 °C 30in /  1016.6hPa Calm   2mph /  3.2km/h 62% 0in /  0.0mm 0 W/m2
21:53 68.5 °F /  20.3 °C 55 °F /  12.8 °C 30in /  1016.6hPa Calm   1mph /  1.6km/h 62% 0in /  0.0mm 0 W/m2
21:59 68.2 °F /  20.1 °C 55 °F /  12.8 °C 30in /  1016.6hPa Calm   1mph /  1.6km/h 63% 0in /  0.0mm 0 W/m2
22:04 67.8 °F /  19.9 °C 55.6 °F /  13.1 °C 30in /  1016.3hPa West 0.9mph /  1.4km/h 1mph /  1.6km/h 65% 0in /  0.0mm 0 W/m2
22:09 67.6 °F /  19.8 °C 55.4 °F /  13 °C 30in /  1016.3hPa Calm     65% 0in /  0.0mm 0 W/m2
22:14 67.3 °F /  19.6 °C 55 °F /  12.8 °C 30in /  1016.3hPa Calm     65% 0in /  0.0mm 0 W/m2
22:19 66.9 °F /  19.4 °C 55.2 °F /  12.9 °C 30in /  1016.3hPa Calm   2mph /  3.2km/h 66% 0in /  0.0mm 0 W/m2
22:24 66.7 °F /  19.3 °C 55 °F /  12.8 °C 30in /  1016.3hPa Calm   2mph /  3.2km/h 66% 0in /  0.0mm 0 W/m2
22:29 66.7 °F /  19.3 °C 55 °F /  12.8 °C 30in /  1016.3hPa West 0.9mph /  1.4km/h 1mph /  1.6km/h 66% 0in /  0.0mm 0 W/m2
22:34 66.7 °F /  19.3 °C 55 °F /  12.8 °C 30in /  1016.3hPa Calm     66% 0in /  0.0mm 0 W/m2
22:39 67.3 °F /  19.6 °C 54.3 °F /  12.4 °C 30in /  1016.3hPa SSW 2mph /  3.2km/h 5mph /  8km/h 63% 0in /  0.0mm 0 W/m2
22:44 68.4 °F /  20.2 °C 54.9 °F /  12.7 °C 30in /  1016.6hPa NW 4mph /  6.4km/h 8mph /  12.9km/h 62% 0in /  0.0mm 0 W/m2
22:49 68.9 °F /  20.5 °C 54.5 °F /  12.5 °C 30in /  1016.6hPa WNW 2.9mph /  4.7km/h 6mph /  9.7km/h 60% 0in /  0.0mm 0 W/m2
22:54 69.1 °F /  20.6 °C 54.7 °F /  12.6 °C 30in /  1016.6hPa NNW 2mph /  3.2km/h 8mph /  12.9km/h 60% 0in /  0.0mm 0 W/m2
22:59 69.3 °F /  20.7 °C 55.2 °F /  12.9 °C 30in /  1016.6hPa Calm   1mph /  1.6km/h 61% 0in /  0.0mm 0 W/m2
23:04 69.1 °F /  20.6 °C 55 °F /  12.8 °C 30in /  1016.3hPa North 0.9mph /  1.4km/h 1mph /  1.6km/h 61% 0in /  0.0mm 0 W/m2
23:09 68.5 °F /  20.3 °C 55 °F /  12.8 °C 30in /  1016.6hPa Calm     62% 0in /  0.0mm 0 W/m2
23:14 68.4 °F /  20.2 °C 55.2 °F /  12.9 °C 30in /  1016.6hPa Calm     63% 0in /  0.0mm 0 W/m2
23:19 67.8 °F /  19.9 °C 54.7 °F /  12.6 °C 30in /  1016.3hPa Calm   1mph /  1.6km/h 63% 0in /  0.0mm 0 W/m2
23:24 67.6 °F /  19.8 °C 54.7 °F /  12.6 °C 30in /  1016.3hPa Calm     63% 0in /  0.0mm 0 W/m2
23:29 67.6 °F /  19.8 °C 54.7 °F /  12.6 °C 30in /  1016.6hPa Calm   1mph /  1.6km/h 63% 0in /  0.0mm 0 W/m2
23:34 67.8 °F /  19.9 °C 54.3 °F /  12.4 °C 30in /  1016.3hPa Calm   1mph /  1.6km/h 62% 0in /  0.0mm 0 W/m2
23:39 67.8 °F /  19.9 °C 54.7 °F /  12.6 °C 30in /  1016.3hPa Calm   1mph /  1.6km/h 63% 0in /  0.0mm 0 W/m2
23:44 67.8 °F /  19.9 °C 54.7 °F /  12.6 °C 30in /  1016.6hPa West 0.9mph /  1.4km/h 3mph /  4.8km/h 63% 0in /  0.0mm 0 W/m2
23:49 67.8 °F /  19.9 °C 54.3 °F /  12.4 °C 30in /  1016.6hPa Calm   1mph /  1.6km/h 62% 0in /  0.0mm 0 W/m2
23:54 67.8 °F /  19.9 °C 55.2 °F /  12.9 °C 30in /  1016.6hPa Calm     64% 0in /  0.0mm 0 W/m2
23:59 67.6 °F /  19.8 °C 54.7 °F /  12.6 °C 30in /  1016.6hPa WNW 0.9mph /  1.4km/h 2mph /  3.2km/h 63% 0in /  0.0mm 0 W/m2
Juneau County Weather
Compliments of Weather Underground - 4 mb